Godalming, United Kingdom
Current Conditions -  °F | °C
As of 8:20 PM on Tuesday 27 Jan 2015 (Local Time) from EGLF Reporting Station
Broken Clouds Broken Clouds  
Wind Chill: 39°   Ceiling: 2500
Heat Index: 45°   Visibility: 6mi
Dew Point: 36°   Wind: 10mph
Humidity: 71%   Direction: 250°WSW
Pressure: 30.21"   Gusts: NA
Location:  51.18°N, 0.62°W
Report Text: EGLF 272020Z 25009KT 220V280 9999 BKN025 07/02 Q1023
Loading
Personal Weather Stations






























Interactive Weather Map New forecast layout! Learn more

10-Day Weather Forecast

Advertisements
Track Severe Weather on mobile